sensor_id;sensor_type;location;lat;lon;timestamp;P1;durP1;ratioP1;P2;durP2;ratioP2
29302;SDS011;60019;45.556;12.004;2023-10-08T00:00:31;27.08;;;19.10;;
29302;SDS011;60019;45.556;12.004;2023-10-08T00:06:44;25.23;;;18.60;;
29302;SDS011;60019;45.556;12.004;2023-10-08T00:12:50;26.83;;;18.38;;
29302;SDS011;60019;45.556;12.004;2023-10-08T00:18:51;30.95;;;20.88;;
29302;SDS011;60019;45.556;12.004;2023-10-08T00:24:53;27.33;;;20.15;;
29302;SDS011;60019;45.556;12.004;2023-10-08T00:30:58;31.13;;;21.30;;
29302;SDS011;60019;45.556;12.004;2023-10-08T00:37:13;30.33;;;20.88;;
29302;SDS011;60019;45.556;12.004;2023-10-08T00:43:31;36.35;;;22.42;;
29302;SDS011;60019;45.556;12.004;2023-10-08T00:49:36;32.13;;;20.17;;
29302;SDS011;60019;45.556;12.004;2023-10-08T00:55:41;35.75;;;23.17;;
29302;SDS011;60019;45.556;12.004;2023-10-08T01:01:48;33.40;;;22.65;;
29302;SDS011;60019;45.556;12.004;2023-10-08T01:07:59;32.30;;;21.58;;
29302;SDS011;60019;45.556;12.004;2023-10-08T01:14:07;30.15;;;20.55;;
29302;SDS011;60019;45.556;12.004;2023-10-08T01:20:09;37.08;;;21.02;;
29302;SDS011;60019;45.556;12.004;2023-10-08T01:26:22;31.95;;;21.38;;
29302;SDS011;60019;45.556;12.004;2023-10-08T01:32:23;28.23;;;18.90;;
29302;SDS011;60019;45.556;12.004;2023-10-08T01:38:25;30.08;;;19.85;;
29302;SDS011;60019;45.556;12.004;2023-10-08T01:44:28;33.53;;;20.33;;
29302;SDS011;60019;45.556;12.004;2023-10-08T01:50:31;25.52;;;17.90;;
29302;SDS011;60019;45.556;12.004;2023-10-08T01:56:38;28.58;;;20.10;;
29302;SDS011;60019;45.556;12.004;2023-10-08T02:02:48;31.67;;;20.02;;
29302;SDS011;60019;45.556;12.004;2023-10-08T02:08:51;26.95;;;19.33;;
29302;SDS011;60019;45.556;12.004;2023-10-08T02:14:52;28.23;;;20.75;;
29302;SDS011;60019;45.556;12.004;2023-10-08T02:20:54;28.67;;;20.77;;
29302;SDS011;60019;45.556;12.004;2023-10-08T02:26:56;29.02;;;20.13;;
29302;SDS011;60019;45.556;12.004;2023-10-08T02:32:58;28.23;;;20.00;;
29302;SDS011;60019;45.556;12.004;2023-10-08T02:39:00;31.75;;;18.98;;
29302;SDS011;60019;45.556;12.004;2023-10-08T02:45:07;30.05;;;19.40;;
29302;SDS011;60019;45.556;12.004;2023-10-08T02:51:14;27.85;;;19.25;;
29302;SDS011;60019;45.556;12.004;2023-10-08T02:57:16;32.28;;;19.13;;
29302;SDS011;60019;45.556;12.004;2023-10-08T03:03:17;28.88;;;19.17;;
29302;SDS011;60019;45.556;12.004;2023-10-08T03:09:20;30.45;;;20.50;;
29302;SDS011;60019;45.556;12.004;2023-10-08T03:15:24;28.25;;;18.92;;
29302;SDS011;60019;45.556;12.004;2023-10-08T03:21:29;24.25;;;17.73;;
29302;SDS011;60019;45.556;12.004;2023-10-08T03:27:44;27.17;;;17.80;;
29302;SDS011;60019;45.556;12.004;2023-10-08T03:33:46;26.00;;;17.15;;
29302;SDS011;60019;45.556;12.004;2023-10-08T03:39:52;27.63;;;17.77;;
29302;SDS011;60019;45.556;12.004;2023-10-08T03:46:01;26.83;;;18.05;;
29302;SDS011;60019;45.556;12.004;2023-10-08T03:52:06;22.88;;;16.95;;
29302;SDS011;60019;45.556;12.004;2023-10-08T03:58:08;23.35;;;18.48;;
29302;SDS011;60019;45.556;12.004;2023-10-08T04:04:29;39.67;;;24.25;;
29302;SDS011;60019;45.556;12.004;2023-10-08T04:10:49;31.77;;;22.73;;
29302;SDS011;60019;45.556;12.004;2023-10-08T04:17:08;28.98;;;19.60;;
29302;SDS011;60019;45.556;12.004;2023-10-08T04:23:10;29.77;;;20.42;;
29302;SDS011;60019;45.556;12.004;2023-10-08T04:29:14;28.58;;;20.83;;
29302;SDS011;60019;45.556;12.004;2023-10-08T04:35:17;29.92;;;20.13;;
29302;SDS011;60019;45.556;12.004;2023-10-08T04:41:20;48.00;;;30.48;;
29302;SDS011;60019;45.556;12.004;2023-10-08T04:47:29;38.17;;;25.80;;
29302;SDS011;60019;45.556;12.004;2023-10-08T04:53:33;43.33;;;30.77;;
29302;SDS011;60019;45.556;12.004;2023-10-08T04:59:42;27.58;;;19.77;;
29302;SDS011;60019;45.556;12.004;2023-10-08T05:05:44;34.33;;;23.30;;
29302;SDS011;60019;45.556;12.004;2023-10-08T05:11:56;31.17;;;20.50;;
29302;SDS011;60019;45.556;12.004;2023-10-08T05:18:11;29.60;;;19.88;;
29302;SDS011;60019;45.556;12.004;2023-10-08T05:24:13;25.45;;;18.60;;
29302;SDS011;60019;45.556;12.004;2023-10-08T05:30:16;28.60;;;17.77;;
29302;SDS011;60019;45.556;12.004;2023-10-08T05:36:26;25.33;;;15.63;;
29302;SDS011;60019;45.556;12.004;2023-10-08T05:42:51;22.35;;;15.52;;
29302;SDS011;60019;45.556;12.004;2023-10-08T05:49:01;26.70;;;17.08;;
29302;SDS011;60019;45.556;12.004;2023-10-08T05:55:06;31.15;;;19.13;;
29302;SDS011;60019;45.556;12.004;2023-10-08T06:01:16;30.52;;;19.15;;
29302;SDS011;60019;45.556;12.004;2023-10-08T06:07:47;30.30;;;19.55;;
29302;SDS011;60019;45.556;12.004;2023-10-08T06:13:49;26.15;;;17.02;;
29302;SDS011;60019;45.556;12.004;2023-10-08T06:19:56;34.17;;;21.48;;
29302;SDS011;60019;45.556;12.004;2023-10-08T06:25:58;25.90;;;17.90;;
29302;SDS011;60019;45.556;12.004;2023-10-08T06:32:06;23.98;;;16.42;;
29302;SDS011;60019;45.556;12.004;2023-10-08T06:38:08;22.48;;;17.08;;
29302;SDS011;60019;45.556;12.004;2023-10-08T06:44:15;23.15;;;13.88;;
29302;SDS011;60019;45.556;12.004;2023-10-08T06:50:17;18.35;;;12.23;;
29302;SDS011;60019;45.556;12.004;2023-10-08T06:56:22;20.92;;;12.15;;
29302;SDS011;60019;45.556;12.004;2023-10-08T07:02:24;19.77;;;12.20;;
29302;SDS011;60019;45.556;12.004;2023-10-08T07:08:29;19.15;;;12.63;;
29302;SDS011;60019;45.556;12.004;2023-10-08T07:14:36;18.55;;;11.80;;
29302;SDS011;60019;45.556;12.004;2023-10-08T07:20:39;17.80;;;13.02;;
29302;SDS011;60019;45.556;12.004;2023-10-08T07:26:45;17.48;;;11.60;;
29302;SDS011;60019;45.556;12.004;2023-10-08T07:32:47;19.33;;;12.75;;
29302;SDS011;60019;45.556;12.004;2023-10-08T07:38:49;18.65;;;12.48;;
29302;SDS011;60019;45.556;12.004;2023-10-08T07:44:51;17.52;;;12.48;;
29302;SDS011;60019;45.556;12.004;2023-10-08T07:50:56;14.38;;;11.05;;
29302;SDS011;60019;45.556;12.004;2023-10-08T07:56:58;16.83;;;11.63;;
29302;SDS011;60019;45.556;12.004;2023-10-08T08:03:13;15.98;;;11.18;;
29302;SDS011;60019;45.556;12.004;2023-10-08T08:09:14;16.10;;;11.05;;
29302;SDS011;60019;45.556;12.004;2023-10-08T08:15:19;18.25;;;12.48;;
29302;SDS011;60019;45.556;12.004;2023-10-08T08:21:21;18.80;;;11.55;;
29302;SDS011;60019;45.556;12.004;2023-10-08T08:27:24;17.42;;;11.90;;
29302;SDS011;60019;45.556;12.004;2023-10-08T08:33:27;19.30;;;12.05;;
29302;SDS011;60019;45.556;12.004;2023-10-08T08:39:47;15.35;;;11.27;;
29302;SDS011;60019;45.556;12.004;2023-10-08T08:45:49;18.30;;;11.85;;
29302;SDS011;60019;45.556;12.004;2023-10-08T08:51:51;14.02;;;10.23;;
29302;SDS011;60019;45.556;12.004;2023-10-08T08:57:56;16.55;;;11.02;;
29302;SDS011;60019;45.556;12.004;2023-10-08T09:03:58;17.30;;;10.80;;
29302;SDS011;60019;45.556;12.004;2023-10-08T09:10:01;17.13;;;12.00;;
29302;SDS011;60019;45.556;12.004;2023-10-08T09:16:11;17.50;;;11.77;;
29302;SDS011;60019;45.556;12.004;2023-10-08T09:22:13;14.48;;;10.70;;
29302;SDS011;60019;45.556;12.004;2023-10-08T09:28:17;16.27;;;10.85;;
29302;SDS011;60019;45.556;12.004;2023-10-08T09:34:19;15.68;;;10.30;;
29302;SDS011;60019;45.556;12.004;2023-10-08T09:40:21;16.20;;;10.75;;
29302;SDS011;60019;45.556;12.004;2023-10-08T09:46:26;16.50;;;10.63;;
29302;SDS011;60019;45.556;12.004;2023-10-08T09:52:33;12.35;;;9.48;;
29302;SDS011;60019;45.556;12.004;2023-10-08T09:58:35;13.68;;;9.82;;
29302;SDS011;60019;45.556;12.004;2023-10-08T10:04:43;11.77;;;10.05;;
29302;SDS011;60019;45.556;12.004;2023-10-08T10:10:45;16.05;;;11.05;;
29302;SDS011;60019;45.556;12.004;2023-10-08T10:17:09;14.20;;;9.98;;
29302;SDS011;60019;45.556;12.004;2023-10-08T10:29:36;15.63;;;10.75;;
29302;SDS011;60019;45.556;12.004;2023-10-08T10:35:38;13.05;;;9.32;;
29302;SDS011;60019;45.556;12.004;2023-10-08T10:41:46;12.02;;;8.82;;
29302;SDS011;60019;45.556;12.004;2023-10-08T10:47:52;15.10;;;10.38;;
29302;SDS011;60019;45.556;12.004;2023-10-08T10:54:01;14.95;;;10.88;;
29302;SDS011;60019;45.556;12.004;2023-10-08T11:00:11;14.20;;;10.93;;
29302;SDS011;60019;45.556;12.004;2023-10-08T11:06:31;14.48;;;8.93;;
29302;SDS011;60019;45.556;12.004;2023-10-08T11:12:36;11.00;;;8.27;;
29302;SDS011;60019;45.556;12.004;2023-10-08T11:18:47;11.05;;;8.45;;
29302;SDS011;60019;45.556;12.004;2023-10-08T11:24:51;14.98;;;9.10;;
29302;SDS011;60019;45.556;12.004;2023-10-08T11:30:57;14.05;;;8.63;;
29302;SDS011;60019;45.556;12.004;2023-10-08T11:37:05;14.60;;;8.70;;
29302;SDS011;60019;45.556;12.004;2023-10-08T11:43:26;11.50;;;7.95;;
29302;SDS011;60019;45.556;12.004;2023-10-08T11:49:28;13.13;;;8.57;;
29302;SDS011;60019;45.556;12.004;2023-10-08T11:55:34;11.35;;;7.97;;
29302;SDS011;60019;45.556;12.004;2023-10-08T12:01:43;10.02;;;7.72;;
29302;SDS011;60019;45.556;12.004;2023-10-08T12:07:47;12.55;;;9.07;;
29302;SDS011;60019;45.556;12.004;2023-10-08T12:13:49;11.68;;;8.02;;
29302;SDS011;60019;45.556;12.004;2023-10-08T12:19:51;10.45;;;7.97;;
29302;SDS011;60019;45.556;12.004;2023-10-08T12:25:53;11.75;;;7.90;;
29302;SDS011;60019;45.556;12.004;2023-10-08T12:31:56;9.32;;;7.95;;
29302;SDS011;60019;45.556;12.004;2023-10-08T12:38:00;14.02;;;6.97;;
29302;SDS011;60019;45.556;12.004;2023-10-08T12:44:02;10.93;;;6.88;;
29302;SDS011;60019;45.556;12.004;2023-10-08T12:50:08;13.45;;;7.15;;
29302;SDS011;60019;45.556;12.004;2023-10-08T12:56:10;12.73;;;7.38;;
29302;SDS011;60019;45.556;12.004;2023-10-08T13:02:22;10.65;;;7.55;;
29302;SDS011;60019;45.556;12.004;2023-10-08T13:08:31;11.18;;;7.97;;
29302;SDS011;60019;45.556;12.004;2023-10-08T13:14:34;10.95;;;7.72;;
29302;SDS011;60019;45.556;12.004;2023-10-08T13:20:36;9.65;;;7.03;;
29302;SDS011;60019;45.556;12.004;2023-10-08T13:26:41;11.10;;;7.78;;
29302;SDS011;60019;45.556;12.004;2023-10-08T13:32:48;11.02;;;8.52;;
29302;SDS011;60019;45.556;12.004;2023-10-08T13:38:50;9.82;;;7.63;;
29302;SDS011;60019;45.556;12.004;2023-10-08T13:44:55;11.05;;;8.10;;
29302;SDS011;60019;45.556;12.004;2023-10-08T13:51:00;10.90;;;7.32;;
29302;SDS011;60019;45.556;12.004;2023-10-08T13:57:02;9.23;;;6.95;;
29302;SDS011;60019;45.556;12.004;2023-10-08T14:03:04;9.20;;;7.18;;
29302;SDS011;60019;45.556;12.004;2023-10-08T14:09:08;10.60;;;7.22;;
29302;SDS011;60019;45.556;12.004;2023-10-08T14:15:13;11.13;;;7.53;;
29302;SDS011;60019;45.556;12.004;2023-10-08T14:21:15;9.80;;;7.15;;
29302;SDS011;60019;45.556;12.004;2023-10-08T14:27:19;14.70;;;7.78;;
29302;SDS011;60019;45.556;12.004;2023-10-08T14:33:26;11.20;;;7.00;;
29302;SDS011;60019;45.556;12.004;2023-10-08T14:39:32;11.75;;;7.10;;
29302;SDS011;60019;45.556;12.004;2023-10-08T14:45:52;10.25;;;6.63;;
29302;SDS011;60019;45.556;12.004;2023-10-08T14:51:55;14.35;;;7.82;;
29302;SDS011;60019;45.556;12.004;2023-10-08T14:57:58;9.57;;;6.85;;
29302;SDS011;60019;45.556;12.004;2023-10-08T15:04:07;9.82;;;5.97;;
29302;SDS011;60019;45.556;12.004;2023-10-08T15:10:12;8.65;;;7.03;;
29302;SDS011;60019;45.556;12.004;2023-10-08T15:16:14;9.95;;;7.55;;
29302;SDS011;60019;45.556;12.004;2023-10-08T15:22:15;10.48;;;7.15;;
29302;SDS011;60019;45.556;12.004;2023-10-08T15:28:17;14.10;;;7.47;;
29302;SDS011;60019;45.556;12.004;2023-10-08T15:34:19;14.57;;;7.70;;
29302;SDS011;60019;45.556;12.004;2023-10-08T15:40:21;13.95;;;8.38;;
29302;SDS011;60019;45.556;12.004;2023-10-08T15:46:23;9.52;;;7.45;;
29302;SDS011;60019;45.556;12.004;2023-10-08T15:52:25;10.52;;;6.63;;
29302;SDS011;60019;45.556;12.004;2023-10-08T15:58:27;8.32;;;6.38;;
29302;SDS011;60019;45.556;12.004;2023-10-08T16:04:29;13.13;;;7.57;;
29302;SDS011;60019;45.556;12.004;2023-10-08T16:10:31;10.32;;;7.25;;
29302;SDS011;60019;45.556;12.004;2023-10-08T16:16:33;14.98;;;7.05;;
29302;SDS011;60019;45.556;12.004;2023-10-08T16:22:35;12.88;;;7.97;;
29302;SDS011;60019;45.556;12.004;2023-10-08T16:28:37;15.00;;;7.65;;
29302;SDS011;60019;45.556;12.004;2023-10-08T16:34:39;10.80;;;7.78;;
29302;SDS011;60019;45.556;12.004;2023-10-08T16:40:41;11.23;;;8.07;;
29302;SDS011;60019;45.556;12.004;2023-10-08T16:46:43;13.30;;;7.03;;
29302;SDS011;60019;45.556;12.004;2023-10-08T16:52:45;16.02;;;8.13;;
29302;SDS011;60019;45.556;12.004;2023-10-08T16:58:50;11.27;;;7.88;;
29302;SDS011;60019;45.556;12.004;2023-10-08T17:04:53;12.93;;;8.18;;
29302;SDS011;60019;45.556;12.004;2023-10-08T17:10:55;12.20;;;8.43;;
29302;SDS011;60019;45.556;12.004;2023-10-08T17:16:57;13.02;;;8.70;;
29302;SDS011;60019;45.556;12.004;2023-10-08T17:23:03;10.20;;;7.55;;
29302;SDS011;60019;45.556;12.004;2023-10-08T17:29:07;10.15;;;7.30;;
29302;SDS011;60019;45.556;12.004;2023-10-08T17:35:09;9.05;;;7.60;;
29302;SDS011;60019;45.556;12.004;2023-10-08T17:41:11;9.60;;;7.45;;
29302;SDS011;60019;45.556;12.004;2023-10-08T17:47:13;10.90;;;7.95;;
29302;SDS011;60019;45.556;12.004;2023-10-08T17:53:15;12.90;;;9.35;;
29302;SDS011;60019;45.556;12.004;2023-10-08T17:59:17;18.83;;;11.30;;
29302;SDS011;60019;45.556;12.004;2023-10-08T18:05:21;21.00;;;12.88;;
29302;SDS011;60019;45.556;12.004;2023-10-08T18:11:27;21.48;;;12.45;;
29302;SDS011;60019;45.556;12.004;2023-10-08T18:17:30;15.80;;;11.45;;
29302;SDS011;60019;45.556;12.004;2023-10-08T18:23:32;19.17;;;12.85;;
29302;SDS011;60019;45.556;12.004;2023-10-08T18:29:34;17.02;;;13.05;;
29302;SDS011;60019;45.556;12.004;2023-10-08T18:35:36;18.25;;;12.93;;
29302;SDS011;60019;45.556;12.004;2023-10-08T18:41:39;21.23;;;13.70;;
29302;SDS011;60019;45.556;12.004;2023-10-08T18:47:41;19.80;;;13.82;;
29302;SDS011;60019;45.556;12.004;2023-10-08T18:53:43;22.13;;;14.48;;
29302;SDS011;60019;45.556;12.004;2023-10-08T18:59:46;25.23;;;15.55;;
29302;SDS011;60019;45.556;12.004;2023-10-08T19:05:47;21.67;;;14.70;;
29302;SDS011;60019;45.556;12.004;2023-10-08T19:11:49;20.05;;;13.75;;
29302;SDS011;60019;45.556;12.004;2023-10-08T19:17:52;22.17;;;14.10;;
29302;SDS011;60019;45.556;12.004;2023-10-08T19:23:54;20.48;;;14.27;;
29302;SDS011;60019;45.556;12.004;2023-10-08T19:29:58;21.02;;;13.50;;
29302;SDS011;60019;45.556;12.004;2023-10-08T19:35:59;35.38;;;21.58;;
29302;SDS011;60019;45.556;12.004;2023-10-08T19:42:04;55.63;;;33.60;;
29302;SDS011;60019;45.556;12.004;2023-10-08T19:48:06;46.05;;;27.85;;
29302;SDS011;60019;45.556;12.004;2023-10-08T19:54:08;43.95;;;28.77;;
29302;SDS011;60019;45.556;12.004;2023-10-08T20:00:11;53.10;;;30.20;;
29302;SDS011;60019;45.556;12.004;2023-10-08T20:06:17;45.80;;;27.92;;
29302;SDS011;60019;45.556;12.004;2023-10-08T20:12:19;42.58;;;26.95;;
29302;SDS011;60019;45.556;12.004;2023-10-08T20:18:22;43.90;;;26.55;;
29302;SDS011;60019;45.556;12.004;2023-10-08T20:24:24;45.60;;;25.67;;
29302;SDS011;60019;45.556;12.004;2023-10-08T20:30:26;37.40;;;25.35;;
29302;SDS011;60019;45.556;12.004;2023-10-08T20:36:28;40.40;;;27.90;;
29302;SDS011;60019;45.556;12.004;2023-10-08T20:42:30;36.20;;;25.90;;
29302;SDS011;60019;45.556;12.004;2023-10-08T20:48:32;40.70;;;25.45;;
29302;SDS011;60019;45.556;12.004;2023-10-08T20:54:34;100.53;;;59.45;;
29302;SDS011;60019;45.556;12.004;2023-10-08T21:00:37;61.67;;;36.88;;
29302;SDS011;60019;45.556;12.004;2023-10-08T21:06:40;51.35;;;33.33;;
29302;SDS011;60019;45.556;12.004;2023-10-08T21:12:46;55.25;;;29.83;;
29302;SDS011;60019;45.556;12.004;2023-10-08T21:18:48;46.40;;;28.52;;
29302;SDS011;60019;45.556;12.004;2023-10-08T21:24:50;46.53;;;30.35;;
29302;SDS011;60019;45.556;12.004;2023-10-08T21:30:52;47.45;;;30.02;;
29302;SDS011;60019;45.556;12.004;2023-10-08T21:36:53;45.22;;;28.27;;
29302;SDS011;60019;45.556;12.004;2023-10-08T21:42:55;44.63;;;29.30;;
29302;SDS011;60019;45.556;12.004;2023-10-08T21:48:58;46.70;;;31.05;;
29302;SDS011;60019;45.556;12.004;2023-10-08T21:55:00;43.20;;;28.38;;
29302;SDS011;60019;45.556;12.004;2023-10-08T22:01:01;48.92;;;27.73;;
29302;SDS011;60019;45.556;12.004;2023-10-08T22:07:10;43.97;;;28.40;;
29302;SDS011;60019;45.556;12.004;2023-10-08T22:13:12;44.83;;;29.25;;
29302;SDS011;60019;45.556;12.004;2023-10-08T22:19:15;41.35;;;28.00;;
29302;SDS011;60019;45.556;12.004;2023-10-08T22:25:17;42.03;;;28.38;;
29302;SDS011;60019;45.556;12.004;2023-10-08T22:31:21;45.30;;;27.38;;
29302;SDS011;60019;45.556;12.004;2023-10-08T22:37:24;35.83;;;24.52;;
29302;SDS011;60019;45.556;12.004;2023-10-08T22:43:55;40.30;;;26.98;;
29302;SDS011;60019;45.556;12.004;2023-10-08T22:50:00;40.25;;;25.83;;
29302;SDS011;60019;45.556;12.004;2023-10-08T22:56:18;42.35;;;26.48;;
29302;SDS011;60019;45.556;12.004;2023-10-08T23:02:20;36.20;;;24.45;;
29302;SDS011;60019;45.556;12.004;2023-10-08T23:08:28;38.17;;;25.35;;
29302;SDS011;60019;45.556;12.004;2023-10-08T23:14:29;44.83;;;27.38;;
29302;SDS011;60019;45.556;12.004;2023-10-08T23:20:32;43.08;;;27.80;;
29302;SDS011;60019;45.556;12.004;2023-10-08T23:26:34;43.63;;;26.63;;
29302;SDS011;60019;45.556;12.004;2023-10-08T23:32:36;38.83;;;24.30;;
29302;SDS011;60019;45.556;12.004;2023-10-08T23:38:43;35.38;;;23.70;;
29302;SDS011;60019;45.556;12.004;2023-10-08T23:44:52;39.20;;;25.73;;
29302;SDS011;60019;45.556;12.004;2023-10-08T23:50:57;41.22;;;26.92;;
29302;SDS011;60019;45.556;12.004;2023-10-08T23:57:01;39.40;;;24.70;;
